Time;durP1;ratioP1;P1;durP2;ratioP2;P2;SDS_P1;SDS_P2;PMS_P1;PMS_P2;Temp;Humidity;BMP_temperature;BMP_pressure;BME280_temperature;BME280_humidity;BME280_pressure;Samples;Min_cycle;Max_cycle;Signal;HPM_P1;HPM_P2
2021/10/19 00:01:10;;;;;;;;;;;21.60;99.90;;;;;;5092333;28;19915;-72
2021/10/19 00:03:37;;;;;;;;;;;21.60;99.90;;;;;;5092242;28;19988;-73
2021/10/19 00:06:09;;;;;;;;;;;21.70;99.90;;;;;;5092626;28;19970;-72
2021/10/19 00:08:36;;;;;;;;;;;21.70;99.90;;;;;;5092022;28;19908;-73
2021/10/19 00:11:03;;;;;;;;;;;21.40;99.90;;;;;;5092102;28;20351;-73
2021/10/19 00:13:30;;;;;;;;;;;21.50;99.90;;;;;;5091698;28;19908;-73
2021/10/19 00:15:57;;;;;;;;;;;21.60;99.90;;;;;;5092454;28;19916;-73
2021/10/19 00:18:23;;;;;;;;;;;21.60;99.90;;;;;;5091960;28;20397;-72
2021/10/19 00:20:50;;;;;;;;;;;21.70;99.90;;;;;;5091995;28;19919;-72
2021/10/19 00:23:19;;;;;;;;;;;21.80;99.90;;;;;;5092162;28;19908;-72
2021/10/19 00:25:45;;;;;;;;;;;21.80;99.90;;;;;;5090930;28;19930;-72
2021/10/19 00:28:12;;;;;;;;;;;21.80;99.90;;;;;;5091767;28;19912;-73
2021/10/19 00:30:39;;;;;;;;;;;21.90;99.90;;;;;;5091721;28;19912;-71
2021/10/19 00:33:05;;;;;;;;;;;21.90;99.90;;;;;;5091659;28;19962;-72
2021/10/19 00:35:32;;;;;;;;;;;21.90;99.90;;;;;;5091231;28;19908;-73
2021/10/19 00:37:59;;;;;;;;;;;22.10;99.90;;;;;;5091279;28;20019;-73
2021/10/19 00:40:26;;;;;;;;;;;22.00;99.90;;;;;;5091555;28;20398;-72
2021/10/19 00:42:53;;;;;;;;;;;22.20;99.90;;;;;;5091769;28;19951;-73
2021/10/19 00:45:20;;;;;;;;;;;22.50;99.90;;;;;;5091838;28;19923;-72
2021/10/19 00:47:49;;;;;;;;;;;22.80;99.90;;;;;;5091305;28;19953;-71
2021/10/19 00:50:16;;;;;;;;;;;22.90;99.90;;;;;;5091061;28;19978;-71
2021/10/19 00:52:43;;;;;;;;;;;23.10;99.90;;;;;;5089480;28;19919;-71
2021/10/19 00:55:11;;;;;;;;;;;23.30;99.90;;;;;;5085726;28;20267;-70
2021/10/19 00:57:38;;;;;;;;;;;23.40;99.90;;;;;;5095508;28;20275;-70
2021/10/19 01:00:06;;;;;;;;;;;23.50;99.90;;;;;;5095269;28;20274;-71
2021/10/19 01:02:33;;;;;;;;;;;23.40;99.90;;;;;;5095555;28;19912;-71
2021/10/19 01:04:59;;;;;;;;;;;23.60;99.90;;;;;;5095138;28;19912;-73
2021/10/19 01:07:26;;;;;;;;;;;23.70;99.90;;;;;;5095367;28;19908;-70
2021/10/19 01:09:53;;;;;;;;;;;23.50;99.90;;;;;;5095010;28;19927;-72
2021/10/19 01:12:20;;;;;;;;;;;23.30;99.90;;;;;;5095636;28;19915;-72
2021/10/19 01:14:46;;;;;;;;;;;23.30;99.90;;;;;;5095443;28;19912;-72
2021/10/19 01:17:13;;;;;;;;;;;23.50;99.90;;;;;;5095112;28;19919;-73
2021/10/19 01:19:40;;;;;;;;;;;23.40;99.90;;;;;;5095332;28;19915;-73
2021/10/19 01:22:10;;;;;;;;;;;23.10;99.90;;;;;;5094671;28;19912;-72
2021/10/19 01:24:40;;;;;;;;;;;22.80;99.90;;;;;;5094099;28;20364;-73
2021/10/19 01:27:10;;;;;;;;;;;22.70;99.90;;;;;;5094745;28;19914;-73
2021/10/19 01:29:36;;;;;;;;;;;22.70;99.90;;;;;;5086043;28;19948;-72
2021/10/19 01:32:03;;;;;;;;;;;22.80;99.90;;;;;;5074382;28;19918;-73
2021/10/19 01:34:36;;;;;;;;;;;22.70;99.90;;;;;;5074375;28;20314;-73
2021/10/19 01:37:04;;;;;;;;;;;22.30;99.90;;;;;;5073921;28;20321;-72
2021/10/19 01:39:31;;;;;;;;;;;22.30;99.90;;;;;;5073992;28;19961;-73
2021/10/19 01:41:57;;;;;;;;;;;22.10;99.90;;;;;;5074398;28;19919;-72
2021/10/19 01:44:24;;;;;;;;;;;21.90;99.90;;;;;;5073585;28;19934;-72
2021/10/19 01:46:51;;;;;;;;;;;21.90;99.90;;;;;;5084847;28;19935;-72
2021/10/19 01:49:17;;;;;;;;;;;22.00;99.90;;;;;;5094360;28;19961;-73
2021/10/19 01:51:44;;;;;;;;;;;22.10;99.90;;;;;;5093973;28;19924;-71
2021/10/19 01:54:11;;;;;;;;;;;21.90;99.90;;;;;;5092672;28;19964;-71
2021/10/19 01:56:37;;;;;;;;;;;21.90;99.90;;;;;;5093877;28;19923;-72
2021/10/19 01:59:04;;;;;;;;;;;21.90;99.90;;;;;;5094006;28;19912;-71
2021/10/19 02:01:30;;;;;;;;;;;22.10;99.90;;;;;;5093768;28;19916;-71
2021/10/19 02:03:57;;;;;;;;;;;21.80;99.90;;;;;;5093765;28;19975;-71
2021/10/19 02:06:24;;;;;;;;;;;21.70;99.90;;;;;;5093540;28;20319;-72
2021/10/19 02:08:51;;;;;;;;;;;21.80;99.90;;;;;;5093678;28;20295;-72
2021/10/19 02:11:17;;;;;;;;;;;22.10;99.90;;;;;;5093972;28;19969;-71
2021/10/19 02:13:44;;;;;;;;;;;22.10;99.90;;;;;;5093485;28;19919;-71
2021/10/19 02:16:10;;;;;;;;;;;22.10;99.90;;;;;;5093545;28;19961;-72
2021/10/19 02:18:37;;;;;;;;;;;22.00;99.90;;;;;;5093705;28;19916;-71
2021/10/19 02:21:04;;;;;;;;;;;21.80;99.90;;;;;;5093574;28;19971;-71
2021/10/19 02:23:30;;;;;;;;;;;21.70;99.90;;;;;;5093523;28;19961;-72
2021/10/19 02:25:57;;;;;;;;;;;21.80;99.90;;;;;;5091834;28;20286;-72
2021/10/19 02:28:24;;;;;;;;;;;21.90;99.90;;;;;;5093260;28;19916;-72
2021/10/19 02:30:51;;;;;;;;;;;21.90;99.90;;;;;;5093487;28;19912;-71
2021/10/19 02:33:17;;;;;;;;;;;21.90;99.90;;;;;;5094386;28;20346;-71
2021/10/19 02:35:44;;;;;;;;;;;21.90;99.90;;;;;;5092039;28;19924;-72
2021/10/19 02:38:11;;;;;;;;;;;21.90;99.90;;;;;;5089110;28;19908;-72
2021/10/19 02:40:37;;;;;;;;;;;21.80;99.90;;;;;;5107749;28;19962;-72
2021/10/19 02:43:04;;;;;;;;;;;21.50;99.90;;;;;;5112598;28;20278;-72
2021/10/19 02:45:31;;;;;;;;;;;21.30;99.90;;;;;;5113497;28;19951;-72
2021/10/19 02:47:57;;;;;;;;;;;21.20;99.90;;;;;;5114045;28;19914;-72
2021/10/19 02:50:24;;;;;;;;;;;21.30;99.90;;;;;;5113508;28;19908;-71
2021/10/19 02:52:51;;;;;;;;;;;21.30;99.90;;;;;;5113576;28;19912;-71
2021/10/19 02:55:17;;;;;;;;;;;21.30;99.90;;;;;;5112633;28;19916;-72
2021/10/19 02:57:45;;;;;;;;;;;21.10;99.90;;;;;;5113339;28;20053;-71
2021/10/19 03:00:12;;;;;;;;;;;20.90;99.90;;;;;;5103169;28;19920;-71
2021/10/19 03:02:39;;;;;;;;;;;20.50;99.90;;;;;;5093178;28;19920;-71
2021/10/19 03:05:09;;;;;;;;;;;20.50;99.90;;;;;;5092193;27;20317;-72
2021/10/19 03:07:36;;;;;;;;;;;20.50;99.90;;;;;;5092794;28;19994;-71
2021/10/19 03:10:03;;;;;;;;;;;20.60;99.90;;;;;;5092938;28;19911;-73
2021/10/19 03:12:31;;;;;;;;;;;20.60;99.90;;;;;;5093267;28;20278;-71
2021/10/19 03:14:58;;;;;;;;;;;20.70;99.90;;;;;;5092778;28;19912;-72
2021/10/19 03:17:25;;;;;;;;;;;20.70;99.90;;;;;;5092196;28;19908;-71
2021/10/19 03:19:52;;;;;;;;;;;20.50;99.90;;;;;;5092100;28;19912;-71
2021/10/19 03:22:19;;;;;;;;;;;20.50;99.90;;;;;;5092427;28;19916;-72
2021/10/19 03:24:45;;;;;;;;;;;20.40;99.90;;;;;;5092380;28;19908;-71
2021/10/19 03:27:13;;;;;;;;;;;20.40;99.90;;;;;;5092561;28;20271;-71
2021/10/19 03:29:40;;;;;;;;;;;20.00;99.90;;;;;;5092251;28;19908;-73
2021/10/19 03:32:07;;;;;;;;;;;19.90;99.90;;;;;;5092515;28;20622;-71
2021/10/19 03:34:36;;;;;;;;;;;19.70;99.90;;;;;;5090602;28;19998;-72
2021/10/19 03:37:03;;;;;;;;;;;19.60;99.90;;;;;;5092374;28;19908;-72
2021/10/19 03:39:29;;;;;;;;;;;19.60;99.90;;;;;;5092380;28;19915;-72
2021/10/19 03:41:56;;;;;;;;;;;19.50;99.90;;;;;;5090914;28;19997;-72
2021/10/19 03:44:23;;;;;;;;;;;19.50;99.90;;;;;;5092186;28;19914;-72
2021/10/19 03:46:49;;;;;;;;;;;19.60;99.90;;;;;;5092386;28;20359;-71
2021/10/19 03:49:16;;;;;;;;;;;19.60;99.90;;;;;;5092023;28;19909;-72
2021/10/19 03:51:43;;;;;;;;;;;19.60;99.90;;;;;;5091847;28;19912;-71
2021/10/19 03:54:09;;;;;;;;;;;19.30;99.90;;;;;;5091634;28;19912;-71
2021/10/19 03:56:36;;;;;;;;;;;18.80;99.90;;;;;;5091933;28;19992;-71
2021/10/19 03:59:03;;;;;;;;;;;18.70;99.90;;;;;;5092417;28;19916;-71
2021/10/19 04:01:31;;;;;;;;;;;19.00;99.90;;;;;;5091960;28;20379;-72
2021/10/19 04:03:57;;;;;;;;;;;19.00;99.90;;;;;;5091839;28;19908;-72
2021/10/19 04:06:24;;;;;;;;;;;18.90;99.90;;;;;;5092342;28;19908;-72
2021/10/19 04:08:51;;;;;;;;;;;18.90;99.90;;;;;;5093854;28;19912;-71
2021/10/19 04:11:18;;;;;;;;;;;18.90;99.90;;;;;;5092413;28;20259;-71
2021/10/19 04:13:44;;;;;;;;;;;18.70;99.90;;;;;;5093586;28;19908;-70
2021/10/19 04:16:11;;;;;;;;;;;18.50;99.90;;;;;;5091781;28;19966;-71
2021/10/19 04:18:38;;;;;;;;;;;18.40;99.90;;;;;;5092954;28;19919;-71
2021/10/19 04:21:04;;;;;;;;;;;18.30;99.90;;;;;;5093519;28;20007;-70
2021/10/19 04:23:31;;;;;;;;;;;18.10;99.90;;;;;;5092015;28;19930;-73
2021/10/19 04:25:58;;;;;;;;;;;18.00;99.90;;;;;;5092096;28;19909;-73
2021/10/19 04:28:24;;;;;;;;;;;18.00;99.90;;;;;;5093084;28;19909;-72
2021/10/19 04:30:51;;;;;;;;;;;17.90;99.90;;;;;;5098088;28;19912;-72
2021/10/19 04:33:18;;;;;;;;;;;17.70;99.90;;;;;;5095774;28;19909;-71
2021/10/19 04:35:45;;;;;;;;;;;17.70;99.90;;;;;;5095235;28;19912;-72
2021/10/19 04:38:12;;;;;;;;;;;17.50;99.90;;;;;;5095339;28;19908;-70
2021/10/19 04:40:39;;;;;;;;;;;17.40;99.90;;;;;;5095664;28;19920;-72
2021/10/19 04:43:05;;;;;;;;;;;17.50;99.90;;;;;;5095888;28;19915;-71
2021/10/19 04:45:32;;;;;;;;;;;17.40;99.90;;;;;;5095215;28;19908;-72
2021/10/19 04:48:02;;;;;;;;;;;17.20;99.90;;;;;;5095152;28;19912;-71
2021/10/19 04:50:29;;;;;;;;;;;17.00;99.90;;;;;;5095280;28;19908;-71
2021/10/19 04:52:56;;;;;;;;;;;16.70;99.90;;;;;;5095568;28;19909;-72
2021/10/19 04:55:23;;;;;;;;;;;16.70;99.90;;;;;;5094702;28;19916;-72
2021/10/19 04:57:49;;;;;;;;;;;16.90;99.90;;;;;;5094748;28;19947;-72
2021/10/19 05:00:16;;;;;;;;;;;16.90;99.90;;;;;;5094927;28;19980;-72
2021/10/19 05:02:47;;;;;;;;;;;16.90;99.90;;;;;;5095301;28;19927;-73
2021/10/19 05:05:14;;;;;;;;;;;16.90;99.90;;;;;;5094803;28;20370;-72
2021/10/19 05:07:41;;;;;;;;;;;16.80;99.90;;;;;;5094843;28;20410;-73
2021/10/19 05:10:08;;;;;;;;;;;16.60;99.90;;;;;;5095218;28;19917;-73
2021/10/19 05:12:35;;;;;;;;;;;16.50;99.90;;;;;;5094911;28;19908;-71
2021/10/19 05:15:03;;;;;;;;;;;16.50;99.90;;;;;;5094776;28;20278;-72
2021/10/19 05:17:30;;;;;;;;;;;16.40;99.90;;;;;;5095042;28;20432;-71
2021/10/19 05:19:56;;;;;;;;;;;16.20;99.90;;;;;;5094719;28;20350;-73
2021/10/19 05:22:23;;;;;;;;;;;16.30;99.90;;;;;;5094971;28;19923;-72
2021/10/19 05:24:50;;;;;;;;;;;16.10;99.90;;;;;;5094535;28;20395;-72
2021/10/19 05:27:17;;;;;;;;;;;16.00;99.90;;;;;;5094655;28;19955;-72
2021/10/19 05:29:44;;;;;;;;;;;16.10;99.90;;;;;;5094245;28;19947;-72
2021/10/19 05:32:10;;;;;;;;;;;16.20;99.90;;;;;;5094828;28;19908;-71
2021/10/19 05:34:37;;;;;;;;;;;16.30;99.90;;;;;;5094444;28;19908;-71
2021/10/19 05:37:04;;;;;;;;;;;16.30;99.90;;;;;;5094393;28;19919;-72
2021/10/19 05:39:30;;;;;;;;;;;16.10;99.90;;;;;;5093968;28;19953;-71
2021/10/19 05:41:59;;;;;;;;;;;16.10;99.90;;;;;;5094590;28;20007;-71
2021/10/19 05:44:26;;;;;;;;;;;16.00;99.90;;;;;;5095045;28;19915;-72
2021/10/19 05:46:53;;;;;;;;;;;15.80;99.90;;;;;;5094120;28;19912;-72
2021/10/19 05:49:19;;;;;;;;;;;15.90;99.90;;;;;;5094884;28;19908;-70
2021/10/19 05:51:48;;;;;;;;;;;15.90;99.90;;;;;;5093840;28;19908;-72
2021/10/19 05:54:16;;;;;;;;;;;15.90;99.90;;;;;;5093445;28;20268;-70
2021/10/19 05:56:43;;;;;;;;;;;15.90;99.90;;;;;;5094689;28;19924;-71
2021/10/19 05:59:10;;;;;;;;;;;15.80;99.90;;;;;;5095388;28;19947;-73
2021/10/19 06:01:37;;;;;;;;;;;15.80;99.90;;;;;;5094930;28;20404;-72
2021/10/19 06:04:04;;;;;;;;;;;15.90;99.90;;;;;;5094164;28;20415;-73
2021/10/19 06:06:30;;;;;;;;;;;16.00;99.90;;;;;;5094072;28;20282;-73
2021/10/19 06:08:57;;;;;;;;;;;16.00;99.90;;;;;;5092792;28;19908;-73
2021/10/19 06:11:24;;;;;;;;;;;15.90;99.90;;;;;;5073634;28;19934;-72
2021/10/19 06:13:50;;;;;;;;;;;15.80;99.90;;;;;;5072232;28;19913;-72
2021/10/19 06:16:17;;;;;;;;;;;15.90;99.90;;;;;;5072899;28;19916;-73
2021/10/19 06:18:44;;;;;;;;;;;15.90;99.90;;;;;;5070811;28;19913;-73
2021/10/19 06:21:10;;;;;;;;;;;15.90;99.90;;;;;;5105504;28;19995;-72
2021/10/19 06:23:37;;;;;;;;;;;15.90;99.90;;;;;;5071327;28;19909;-73
2021/10/19 06:26:04;;;;;;;;;;;15.90;99.90;;;;;;5071318;28;19908;-72
2021/10/19 06:28:31;;;;;;;;;;;16.00;99.90;;;;;;5072220;28;20365;-72
2021/10/19 06:30:58;;;;;;;;;;;15.90;99.90;;;;;;5071980;28;19909;-70
2021/10/19 06:33:24;;;;;;;;;;;15.80;99.90;;;;;;5104416;28;19919;-70
2021/10/19 06:35:51;;;;;;;;;;;15.70;99.90;;;;;;5071310;28;20031;-72
2021/10/19 06:38:18;;;;;;;;;;;15.80;99.90;;;;;;5071326;28;19915;-71
2021/10/19 06:40:44;;;;;;;;;;;15.80;99.90;;;;;;5070973;28;19924;-72
2021/10/19 06:43:12;;;;;;;;;;;15.90;99.90;;;;;;5071153;28;19908;-72
2021/10/19 06:45:39;;;;;;;;;;;15.80;99.90;;;;;;5072238;28;20007;-71
2021/10/19 06:48:06;;;;;;;;;;;15.80;99.90;;;;;;5069753;28;19908;-70
2021/10/19 06:50:32;;;;;;;;;;;15.60;99.90;;;;;;5070282;28;19909;-71
2021/10/19 06:52:59;;;;;;;;;;;15.40;99.90;;;;;;5070631;28;20480;-70
2021/10/19 06:55:26;;;;;;;;;;;15.40;99.90;;;;;;5070063;28;20003;-73
2021/10/19 06:57:52;;;;;;;;;;;15.40;99.90;;;;;;5070382;28;20266;-73
2021/10/19 07:00:20;;;;;;;;;;;15.40;99.90;;;;;;5070781;28;19942;-74
2021/10/19 07:02:46;;;;;;;;;;;15.40;99.90;;;;;;5070251;28;19913;-70
2021/10/19 07:05:14;;;;;;;;;;;15.40;99.90;;;;;;5070303;28;20379;-70
2021/10/19 07:07:41;;;;;;;;;;;15.60;99.90;;;;;;5070490;28;19908;-71
2021/10/19 07:10:08;;;;;;;;;;;15.60;99.90;;;;;;5070627;28;19908;-71
2021/10/19 07:12:37;;;;;;;;;;;15.70;99.90;;;;;;5070681;28;19962;-70
2021/10/19 07:15:04;;;;;;;;;;;15.70;99.90;;;;;;5070322;28;20283;-71
2021/10/19 07:17:31;;;;;;;;;;;15.70;99.90;;;;;;5070489;28;19908;-72
2021/10/19 07:19:57;;;;;;;;;;;15.60;99.90;;;;;;5070017;28;20395;-70
2021/10/19 07:22:28;;;;;;;;;;;15.60;99.90;;;;;;5070445;28;19924;-71
2021/10/19 07:24:55;;;;;;;;;;;15.60;99.90;;;;;;5070870;28;20367;-73
2021/10/19 07:27:22;;;;;;;;;;;15.60;99.90;;;;;;5071346;28;20011;-72
2021/10/19 07:29:48;;;;;;;;;;;15.60;99.90;;;;;;5069628;28;19944;-72
2021/10/19 07:32:15;;;;;;;;;;;15.60;99.90;;;;;;5070888;28;19916;-70
2021/10/19 07:34:42;;;;;;;;;;;15.70;99.90;;;;;;5070274;28;19959;-74
2021/10/19 07:37:09;;;;;;;;;;;15.70;99.90;;;;;;5071127;28;19908;-72
2021/10/19 07:39:35;;;;;;;;;;;15.70;99.90;;;;;;5070431;28;20257;-74
2021/10/19 07:42:02;;;;;;;;;;;15.70;99.90;;;;;;5070090;28;20317;-71
2021/10/19 07:44:29;;;;;;;;;;;15.70;99.90;;;;;;5069913;28;19919;-70
2021/10/19 07:46:55;;;;;;;;;;;15.70;99.90;;;;;;5069834;28;20024;-71
2021/10/19 07:49:22;;;;;;;;;;;15.70;99.90;;;;;;5069564;28;19930;-72
2021/10/19 07:51:50;;;;;;;;;;;15.80;99.90;;;;;;5102062;28;19913;-71
2021/10/19 07:54:17;;;;;;;;;;;15.70;99.90;;;;;;5069118;28;19913;-71
2021/10/19 07:56:44;;;;;;;;;;;15.80;99.90;;;;;;5069855;28;20009;-71
2021/10/19 07:59:11;;;;;;;;;;;15.80;99.90;;;;;;5069856;28;19912;-71
2021/10/19 08:01:38;;;;;;;;;;;15.80;99.90;;;;;;5069502;28;20014;-71
2021/10/19 08:04:04;;;;;;;;;;;15.80;99.90;;;;;;5076212;28;19909;-71
2021/10/19 08:06:31;;;;;;;;;;;15.80;99.90;;;;;;5076383;28;19991;-70
2021/10/19 08:08:59;;;;;;;;;;;15.70;99.90;;;;;;5076074;28;19909;-71
2021/10/19 08:11:25;;;;;;;;;;;15.70;99.90;;;;;;5076497;28;19908;-71
2021/10/19 08:13:56;;;;;;;;;;;15.80;99.90;;;;;;5107975;28;20399;-71
2021/10/19 08:16:23;;;;;;;;;;;15.70;99.90;;;;;;5076088;28;19913;-71
2021/10/19 08:18:52;;;;;;;;;;;15.70;99.90;;;;;;5075867;28;20005;-70
2021/10/19 08:21:20;;;;;;;;;;;15.80;99.90;;;;;;5076259;28;20363;-70
2021/10/19 08:23:47;;;;;;;;;;;15.70;99.90;;;;;;5075866;28;19914;-71
2021/10/19 08:26:13;;;;;;;;;;;15.70;99.90;;;;;;5076116;28;19917;-71
2021/10/19 08:28:43;;;;;;;;;;;15.80;99.90;;;;;;5075667;28;19913;-72
2021/10/19 08:31:11;;;;;;;;;;;15.80;99.90;;;;;;5076510;28;19915;-70
2021/10/19 08:33:38;;;;;;;;;;;15.70;99.90;;;;;;5075669;28;20325;-70
2021/10/19 08:36:05;;;;;;;;;;;15.80;99.90;;;;;;5075997;28;19910;-70
2021/10/19 08:38:31;;;;;;;;;;;15.80;99.90;;;;;;5076151;28;19948;-71
2021/10/19 08:41:00;;;;;;;;;;;15.70;99.90;;;;;;5076238;28;20010;-71
2021/10/19 08:43:27;;;;;;;;;;;15.70;99.90;;;;;;5076192;28;19919;-71
2021/10/19 08:45:54;;;;;;;;;;;15.80;99.90;;;;;;5076126;28;19912;-71
2021/10/19 08:48:20;;;;;;;;;;;15.70;99.90;;;;;;5076070;28;19935;-71
2021/10/19 08:50:47;;;;;;;;;;;15.70;99.90;;;;;;5076755;28;20305;-72
2021/10/19 08:53:14;;;;;;;;;;;15.70;99.90;;;;;;5076482;28;20334;-72
2021/10/19 08:55:40;;;;;;;;;;;15.70;99.90;;;;;;5075256;28;19921;-71
2021/10/19 08:58:13;;;;;;;;;;;15.70;99.90;;;;;;5075870;28;20278;-71
2021/10/19 09:00:40;;;;;;;;;;;15.60;99.90;;;;;;5075815;28;19946;-74
2021/10/19 09:03:07;;;;;;;;;;;15.60;99.90;;;;;;5108616;28;19966;-72
2021/10/19 09:05:34;;;;;;;;;;;15.60;99.90;;;;;;5075834;28;19912;-71
2021/10/19 09:08:11;;;;;;;;;;;15.60;99.90;;;;;;5075803;28;20313;-71
2021/10/19 09:10:41;;;;;;;;;;;15.60;99.90;;;;;;5075713;28;20049;-71
2021/10/19 09:13:09;;;;;;;;;;;15.50;99.90;;;;;;5075808;28;20344;-72
2021/10/19 09:15:39;;;;;;;;;;;15.60;99.90;;;;;;5072220;28;20043;-72
2021/10/19 09:18:12;;;;;;;;;;;15.50;99.90;;;;;;5072855;28;20054;-72
2021/10/19 09:20:40;;;;;;;;;;;15.60;99.90;;;;;;5073211;28;19923;-72
2021/10/19 09:23:07;;;;;;;;;;;15.60;99.90;;;;;;5072979;28;19964;-72
2021/10/19 09:25:38;;;;;;;;;;;15.60;99.90;;;;;;5072494;28;19966;-72
2021/10/19 09:28:07;;;;;;;;;;;15.60;99.90;;;;;;5072734;28;20011;-71
2021/10/19 09:30:34;;;;;;;;;;;15.60;99.90;;;;;;5072795;28;19962;-70
2021/10/19 09:33:01;;;;;;;;;;;15.50;99.90;;;;;;5073191;28;19934;-72
2021/10/19 09:35:28;;;;;;;;;;;15.50;99.90;;;;;;5072784;28;19912;-70
2021/10/19 09:37:59;;;;;;;;;;;15.50;99.90;;;;;;5072019;28;19912;-72
2021/10/19 09:40:36;;;;;;;;;;;15.40;99.90;;;;;;5072220;28;19928;-71
2021/10/19 09:43:04;;;;;;;;;;;15.50;99.90;;;;;;5082696;28;19908;-71
2021/10/19 09:45:31;;;;;;;;;;;15.40;99.90;;;;;;5092622;28;19958;-70
2021/10/19 09:47:58;;;;;;;;;;;15.40;99.90;;;;;;5092449;28;19920;-73
2021/10/19 09:50:25;;;;;;;;;;;15.40;99.90;;;;;;5092625;28;19918;-71
2021/10/19 09:52:52;;;;;;;;;;;15.30;99.90;;;;;;5091894;28;19912;-73
2021/10/19 09:55:19;;;;;;;;;;;15.20;99.90;;;;;;5092241;28;19954;-72
2021/10/19 09:57:49;;;;;;;;;;;15.20;99.90;;;;;;5091637;28;20019;-72
2021/10/19 10:00:16;;;;;;;;;;;15.20;99.90;;;;;;5092199;28;19916;-72
2021/10/19 10:02:46;;;;;;;;;;;15.20;99.90;;;;;;5090658;28;20359;-71
2021/10/19 10:05:13;;;;;;;;;;;15.20;99.90;;;;;;5091982;28;19928;-72
2021/10/19 10:07:41;;;;;;;;;;;15.20;99.90;;;;;;5092473;28;20363;-71
2021/10/19 10:10:09;;;;;;;;;;;15.10;99.90;;;;;;5092731;28;20358;-71
2021/10/19 10:12:37;;;;;;;;;;;15.20;99.90;;;;;;5094547;28;19981;-71
2021/10/19 10:15:04;;;;;;;;;;;15.30;99.90;;;;;;5094101;28;19965;-73
2021/10/19 10:17:30;;;;;;;;;;;15.20;99.90;;;;;;5093730;28;19908;-72
2021/10/19 10:20:07;;;;;;;;;;;15.30;99.90;;;;;;5094126;28;20275;-72
2021/10/19 10:22:42;;;;;;;;;;;15.30;99.90;;;;;;5096523;28;20376;-72
2021/10/19 10:25:09;;;;;;;;;;;15.20;99.90;;;;;;5095399;28;19908;-73
2021/10/19 10:27:36;;;;;;;;;;;15.20;99.90;;;;;;5092998;28;19911;-71
2021/10/19 10:30:04;;;;;;;;;;;15.10;99.90;;;;;;5094036;28;19985;-72
2021/10/19 10:32:36;;;;;;;;;;;15.10;99.90;;;;;;5093850;28;20007;-72
2021/10/19 10:35:03;;;;;;;;;;;15.10;99.90;;;;;;5093923;28;19965;-71
2021/10/19 10:37:37;;;;;;;;;;;15.10;99.90;;;;;;5092797;28;19962;-72
2021/10/19 10:40:05;;;;;;;;;;;15.10;99.90;;;;;;5093356;28;19958;-72
2021/10/19 10:42:40;;;;;;;;;;;15.10;99.90;;;;;;5093614;28;20359;-72
2021/10/19 10:45:16;;;;;;;;;;;15.10;99.90;;;;;;5093721;28;19912;-71
2021/10/19 10:48:09;;;;;;;;;;;15.10;99.90;;;;;;5092987;28;19962;-72
2021/10/19 10:50:37;;;;;;;;;;;15.10;99.90;;;;;;5091488;28;19915;-72
2021/10/19 10:53:08;;;;;;;;;;;15.10;99.90;;;;;;5092844;28;19928;-72
2021/10/19 10:55:45;;;;;;;;;;;15.00;99.90;;;;;;5093053;28;19942;-73
2021/10/19 10:58:21;;;;;;;;;;;15.00;99.90;;;;;;5093327;28;19914;-73
2021/10/19 11:00:48;;;;;;;;;;;15.00;99.90;;;;;;5093183;28;20014;-70
2021/10/19 11:03:16;;;;;;;;;;;15.00;99.90;;;;;;5093362;28;19908;-72
2021/10/19 11:06:04;;;;;;;;;;;15.00;99.90;;;;;;5092869;28;19996;-73
2021/10/19 11:08:32;;;;;;;;;;;15.00;99.90;;;;;;5092892;28;19908;-73
2021/10/19 11:11:09;;;;;;;;;;;15.00;99.90;;;;;;5093154;28;19954;-72
2021/10/19 11:13:47;;;;;;;;;;;14.90;99.90;;;;;;5092618;28;19915;-72
2021/10/19 11:16:15;;;;;;;;;;;14.90;99.90;;;;;;5093205;28;19912;-71
2021/10/19 11:18:42;;;;;;;;;;;14.90;99.90;;;;;;5092554;28;20355;-72
2021/10/19 11:21:08;;;;;;;;;;;14.80;99.90;;;;;;5092354;28;20356;-74
2021/10/19 11:23:41;;;;;;;;;;;14.80;99.90;;;;;;5092652;28;20363;-73
2021/10/19 11:26:09;;;;;;;;;;;14.80;99.90;;;;;;5093145;28;20309;-73
2021/10/19 11:28:36;;;;;;;;;;;14.70;99.90;;;;;;5092913;28;19915;-73
2021/10/19 11:31:04;;;;;;;;;;;14.70;99.90;;;;;;5092639;28;19908;-72
2021/10/19 11:33:41;;;;;;;;;;;14.60;99.90;;;;;;5092414;28;19908;-72
2021/10/19 11:36:08;;;;;;;;;;;14.60;99.90;;;;;;5092154;28;20002;-73
2021/10/19 11:38:42;;;;;;;;;;;14.60;99.90;;;;;;5092171;28;20316;-71
2021/10/19 11:41:09;;;;;;;;;;;14.60;99.90;;;;;;5092588;28;20352;-73
2021/10/19 11:43:40;;;;;;;;;;;14.60;99.90;;;;;;5092275;28;19915;-72
2021/10/19 11:46:12;;;;;;;;;;;14.50;99.90;;;;;;5092680;28;20015;-73
2021/10/19 11:48:39;;;;;;;;;;;14.50;99.90;;;;;;5092676;28;19979;-73
2021/10/19 11:51:11;;;;;;;;;;;14.50;99.90;;;;;;5092163;28;20429;-71
2021/10/19 11:53:39;;;;;;;;;;;14.50;99.90;;;;;;5092357;28;19912;-70
2021/10/19 11:56:06;;;;;;;;;;;14.50;99.90;;;;;;5092279;28;19920;-71
2021/10/19 11:58:33;;;;;;;;;;;14.40;99.90;;;;;;5093082;28;19916;-71
2021/10/19 12:01:01;;;;;;;;;;;14.40;99.90;;;;;;5093027;28;19947;-72
2021/10/19 12:03:31;;;;;;;;;;;14.30;99.90;;;;;;5092549;28;19912;-72
2021/10/19 12:05:59;;;;;;;;;;;14.40;99.90;;;;;;5090908;28;19931;-72
2021/10/19 12:08:32;;;;;;;;;;;14.30;99.90;;;;;;5091589;28;19914;-72
2021/10/19 12:11:11;;;;;;;;;;;14.30;99.90;;;;;;5092281;28;19916;-71
2021/10/19 12:13:38;;;;;;;;;;;14.20;99.90;;;;;;5092265;28;20278;-73
2021/10/19 12:16:07;;;;;;;;;;;14.30;99.90;;;;;;5092240;28;19912;-71
2021/10/19 12:18:43;;;;;;;;;;;14.30;99.90;;;;;;5092327;28;19912;-70
2021/10/19 12:21:10;;;;;;;;;;;14.30;99.90;;;;;;5091822;28;19916;-70
2021/10/19 12:23:38;;;;;;;;;;;14.30;99.90;;;;;;5091755;28;19908;-71
2021/10/19 12:26:08;;;;;;;;;;;14.30;99.90;;;;;;5087382;28;19958;-70
2021/10/19 12:28:35;;;;;;;;;;;14.30;99.90;;;;;;5091925;28;19960;-70
2021/10/19 12:31:01;;;;;;;;;;;14.20;99.90;;;;;;5092264;28;19953;-71
2021/10/19 12:33:29;;;;;;;;;;;14.30;99.90;;;;;;5092123;28;20273;-74
2021/10/19 12:35:58;;;;;;;;;;;14.20;99.90;;;;;;5090760;28;19955;-73
2021/10/19 12:38:32;;;;;;;;;;;14.20;99.90;;;;;;5086637;28;19940;-72
2021/10/19 12:41:06;;;;;;;;;;;14.20;99.90;;;;;;5092299;28;20007;-73
2021/10/19 12:43:33;;;;;;;;;;;14.20;99.90;;;;;;5092012;28;19908;-72
2021/10/19 12:46:04;;;;;;;;;;;14.30;99.90;;;;;;5092200;28;20449;-72
2021/10/19 12:48:32;;;;;;;;;;;14.30;99.90;;;;;;5091944;28;19922;-72
2021/10/19 12:51:02;;;;;;;;;;;14.30;99.90;;;;;;5095379;28;20417;-71
2021/10/19 12:53:29;;;;;;;;;;;14.30;99.90;;;;;;5096441;28;19918;-71
2021/10/19 12:55:56;;;;;;;;;;;14.30;99.90;;;;;;5095707;28;19999;-70
2021/10/19 12:58:23;;;;;;;;;;;14.30;99.90;;;;;;5095759;28;20014;-70
2021/10/19 13:00:50;;;;;;;;;;;14.30;99.90;;;;;;5095653;28;19959;-71
2021/10/19 13:03:17;;;;;;;;;;;14.20;99.90;;;;;;5096258;28;19939;-72
2021/10/19 13:05:45;;;;;;;;;;;14.20;99.90;;;;;;5094749;28;19952;-73
2021/10/19 13:08:11;;;;;;;;;;;14.30;99.90;;;;;;5088998;28;19995;-70
2021/10/19 13:10:38;;;;;;;;;;;14.20;99.90;;;;;;5095302;28;19912;-71
2021/10/19 13:13:05;;;;;;;;;;;14.20;99.90;;;;;;5095618;28;19908;-71
2021/10/19 13:15:31;;;;;;;;;;;14.20;99.90;;;;;;5093882;28;19973;-71
2021/10/19 13:17:59;;;;;;;;;;;14.10;99.90;;;;;;5094941;28;19915;-71
2021/10/19 13:20:26;;;;;;;;;;;14.20;99.90;;;;;;5095062;28;20414;-71
2021/10/19 13:22:52;;;;;;;;;;;14.20;99.90;;;;;;5095333;28;19931;-71
2021/10/19 13:25:19;;;;;;;;;;;14.10;99.90;;;;;;5095223;28;19961;-70
2021/10/19 13:27:46;;;;;;;;;;;14.20;99.90;;;;;;5094823;28;20488;-70
2021/10/19 13:30:13;;;;;;;;;;;14.10;99.90;;;;;;5094098;28;19908;-70
2021/10/19 13:32:40;;;;;;;;;;;14.10;99.90;;;;;;5095166;28;19936;-73
2021/10/19 13:35:07;;;;;;;;;;;14.10;99.90;;;;;;5087382;28;19920;-71
2021/10/19 13:37:34;;;;;;;;;;;14.10;99.90;;;;;;5095692;28;19965;-71
2021/10/19 13:40:03;;;;;;;;;;;14.10;99.90;;;;;;5091770;28;20714;-71
2021/10/19 13:42:30;;;;;;;;;;;14.10;99.90;;;;;;5113778;27;19912;-70
2021/10/19 13:44:57;;;;;;;;;;;14.10;99.90;;;;;;5113911;28;19914;-70
2021/10/19 13:47:25;;;;;;;;;;;14.10;99.90;;;;;;5115089;28;19912;-73
2021/10/19 13:49:52;;;;;;;;;;;14.20;99.90;;;;;;5114971;28;19908;-72
2021/10/19 13:52:20;;;;;;;;;;;14.20;99.90;;;;;;5115230;28;19958;-72
2021/10/19 13:54:46;;;;;;;;;;;14.20;99.90;;;;;;5114913;28;20366;-71
2021/10/19 13:57:13;;;;;;;;;;;14.20;99.90;;;;;;5115207;28;20300;-71
2021/10/19 13:59:40;;;;;;;;;;;14.30;99.90;;;;;;5114804;28;19908;-71
2021/10/19 14:02:07;;;;;;;;;;;14.20;99.90;;;;;;5114436;28;19916;-71
2021/10/19 14:04:33;;;;;;;;;;;14.20;99.90;;;;;;5114967;28;19912;-71
2021/10/19 14:07:02;;;;;;;;;;;14.10;99.90;;;;;;5114816;28;19915;-71
2021/10/19 14:09:29;;;;;;;;;;;14.10;99.90;;;;;;5114676;28;19953;-71
2021/10/19 14:11:57;;;;;;;;;;;14.00;99.90;;;;;;5114583;28;19915;-71
2021/10/19 14:14:24;;;;;;;;;;;14.00;99.90;;;;;;5114526;28;20000;-71
2021/10/19 14:16:51;;;;;;;;;;;14.00;99.90;;;;;;5114466;28;19915;-71
2021/10/19 14:19:18;;;;;;;;;;;14.10;99.90;;;;;;5114728;28;19908;-72